This is the latest recevied weather packets stored in our database for station/object DO6DD-13. If no packets are shown the sender has not sent any weather packets the latest 10 day(s).
| Time | Temp. | Humidity | Pressure | Rain* | Wind** | Luminosity | Snow |
|---|---|---|---|---|---|---|---|
| 1777594221 | 10.56° C | 62% | 1029.2 hPa | - | - | 2 W/m² | - |
| 1777593620 | 10.56° C | 62% | 1029.3 hPa | - | - | 2 W/m² | - |
| 1777593020 | 10.56° C | 62% | 1029.4 hPa | - | - | 2 W/m² | - |
| 1777592420 | 10° C | 64% | 1029.4 hPa | - | - | 2 W/m² | - |
| 1777591829 | 10° C | 65% | 1029.5 hPa | - | - | 2 W/m² | - |
| 1777591228 | 10° C | 67% | 1029.5 hPa | - | - | 2 W/m² | - |
| 1777590628 | 10.56° C | 65% | 1029.5 hPa | - | - | 2 W/m² | - |
| 1777590038 | 11.11° C | 63% | 1029.5 hPa | - | - | 2 W/m² | - |
| 1777589427 | 11.11° C | 60% | 1029.4 hPa | - | - | 2 W/m² | - |
| 1777588827 | 11.67° C | 59% | 1029.3 hPa | - | - | 2 W/m² | - |
| 1777588226 | 11.67° C | 60% | 1029.4 hPa | - | - | 2 W/m² | - |
| 1777587626 | 11.67° C | 58% | 1029.3 hPa | - | - | 2 W/m² | - |
| 1777587025 | 11.67° C | 58% | 1029.3 hPa | - | - | 2 W/m² | - |
| 1777586425 | 12.22° C | 56% | 1029.3 hPa | - | - | 2 W/m² | - |
| 1777585824 | 12.22° C | 55% | 1029.3 hPa | - | - | 2 W/m² | - |
| 1777585234 | 12.22° C | 55% | 1029.3 hPa | - | - | 2 W/m² | - |
| 1777584623 | 12.22° C | 55% | 1029.3 hPa | - | - | 2 W/m² | - |
| 1777584033 | 12.22° C | 55% | 1029.3 hPa | - | - | 2 W/m² | - |
| 1777583432 | 12.22° C | 56% | 1029.3 hPa | - | - | 2 W/m² | - |
| 1777582832 | 12.22° C | 57% | 1029.3 hPa | - | - | 2 W/m² | - |
| 1777582241 | 12.22° C | 59% | 1029.3 hPa | - | - | 2 W/m² | - |
| 1777581631 | 12.22° C | 57% | 1029.3 hPa | - | - | 2 W/m² | - |
| 1777581030 | 12.78° C | 56% | 1029.3 hPa | - | - | 2 W/m² | - |
| 1777580420 | 12.78° C | 56% | 1029.3 hPa | - | - | 2 W/m² | - |
| 1777579829 | 12.78° C | 55% | 1029.2 hPa | - | - | 2 W/m² | - |
* Rain since midnight (hover to see other rain measurements)
** Current wind speed in m/s (hover to see current wind gust speed)